Time;durP1;ratioP1;P1;durP2;ratioP2;P2;SDS_P1;SDS_P2;PMS_P1;PMS_P2;Temp;Humidity;BMP_temperature;BMP_pressure;BME280_temperature;BME280_humidity;BME280_pressure;Samples;Min_cycle;Max_cycle;Signal;HPM_P1;HPM_P2
2023/01/03 00:00:22;;;;;;;16.40;5.30;;;;;;;9.87;79.56;100842.14;103158;1281;22662;-61
2023/01/03 00:03:16;;;;;;;15.30;5.20;;;;;;;9.87;79.50;100846.54;103283;1282;22469;-61
2023/01/03 00:05:48;;;;;;;15.20;4.70;;;;;;;9.87;79.55;100849.82;103254;1274;22460;-60
2023/01/03 00:08:19;;;;;;;14.80;4.70;;;;;;;9.86;79.52;100856.30;103007;1283;23109;-61
2023/01/03 00:10:50;;;;;;;15.70;4.60;;;;;;;9.85;79.46;100869.08;103133;1282;22479;-61
2023/01/03 00:13:21;;;;;;;13.90;4.00;;;;;;;9.85;79.53;100873.65;103063;1305;22541;-61
2023/01/03 00:15:52;;;;;;;13.90;4.00;;;;;;;9.87;79.35;100876.59;103030;1281;23177;-61
2023/01/03 00:18:23;;;;;;;13.50;4.20;;;;;;;9.92;79.28;100885.33;103096;1282;25601;-61
2023/01/03 00:20:54;;;;;;;15.70;4.80;;;;;;;9.99;78.91;100896.02;103219;1304;22475;-62
2023/01/03 00:23:25;;;;;;;15.30;4.10;;;;;;;10.07;78.91;100894.40;103088;1282;22799;-61
2023/01/03 00:25:57;;;;;;;12.10;3.60;;;;;;;10.15;78.74;100901.46;103244;1298;24308;-61
2023/01/03 00:28:28;;;;;;;13.90;3.90;;;;;;;10.20;78.69;100910.16;103239;1274;26464;-62
2023/01/03 00:30:59;;;;;;;13.30;3.00;;;;;;;10.25;78.78;100915.98;103208;1281;25420;-63
2023/01/03 00:33:31;;;;;;;12.50;3.50;;;;;;;10.27;78.86;100909.55;103205;1281;25787;-62
2023/01/03 00:36:04;;;;;;;10.60;2.60;;;;;;;10.28;78.99;100914.40;103239;1306;22463;-61
2023/01/03 00:38:36;;;;;;;8.20;1.40;;;;;;;10.27;79.26;100917.68;103049;1282;24333;-61
2023/01/03 00:41:09;;;;;;;6.90;1.60;;;;;;;10.27;79.52;100916.27;103111;1281;22457;-61
2023/01/03 00:43:41;;;;;;;7.90;1.70;;;;;;;10.25;79.69;100925.02;103674;1274;22461;-61
2023/01/03 00:46:14;;;;;;;5.30;1.00;;;;;;;10.23;79.94;100927.34;103289;1281;25315;-62
2023/01/03 00:48:45;;;;;;;5.70;1.20;;;;;;;10.19;80.20;100919.20;103273;1289;22493;-62
2023/01/03 00:51:18;;;;;;;6.30;1.40;;;;;;;10.15;80.42;100915.64;103376;1281;22460;-61
2023/01/03 00:53:51;;;;;;;6.70;1.60;;;;;;;10.11;80.74;100921.05;103301;1282;22474;-61
2023/01/03 00:56:24;;;;;;;4.80;1.10;;;;;;;10.07;80.87;100928.62;103166;1277;24308;-61
2023/01/03 00:58:55;;;;;;;6.90;1.70;;;;;;;10.03;81.14;100932.83;103274;1306;23188;-62
2023/01/03 01:01:30;;;;;;;6.10;1.30;;;;;;;10.00;81.17;100940.45;103218;1282;24250;-60
2023/01/03 01:04:05;;;;;;;6.20;1.60;;;;;;;9.95;81.53;100941.84;103226;1282;22459;-62
2023/01/03 01:06:39;;;;;;;7.50;1.60;;;;;;;9.91;81.55;100945.83;103133;1282;24284;-61
2023/01/03 01:09:13;;;;;;;4.80;1.30;;;;;;;9.86;81.73;100950.80;103082;1283;22464;-60
2023/01/03 01:11:44;;;;;;;5.50;1.20;;;;;;;9.81;81.95;100949.63;103303;1276;25104;-61
2023/01/03 01:14:22;;;;;;;6.90;1.30;;;;;;;9.77;82.20;100949.24;103144;1281;24343;-60
2023/01/03 01:16:55;;;;;;;4.90;1.30;;;;;;;9.73;82.18;100952.16;103216;1288;24328;-62
2023/01/03 01:19:28;;;;;;;6.10;1.10;;;;;;;9.69;82.54;100962.02;103345;1282;22452;-60
2023/01/03 01:22:00;;;;;;;4.70;1.20;;;;;;;9.66;82.67;100970.36;103185;1283;24559;-62
2023/01/03 01:24:31;;;;;;;7.10;1.50;;;;;;;9.63;82.70;100970.72;103203;1282;25369;-61
2023/01/03 01:27:03;;;;;;;4.20;1.30;;;;;;;9.61;82.72;100973.27;103273;1282;22477;-61
2023/01/03 01:29:35;;;;;;;5.50;1.50;;;;;;;9.58;82.88;100979.17;103371;1281;23206;-60
2023/01/03 01:32:06;;;;;;;8.30;1.50;;;;;;;9.54;83.05;100979.70;103348;1303;22690;-61
2023/01/03 01:34:38;;;;;;;8.80;1.60;;;;;;;9.52;83.32;100987.84;103049;1278;22473;-62
2023/01/03 01:37:09;;;;;;;8.30;1.70;;;;;;;9.49;83.42;100987.33;103261;1275;22457;-62
2023/01/03 01:39:40;;;;;;;11.40;2.40;;;;;;;9.46;83.45;100991.19;103017;1282;24270;-61
2023/01/03 01:45:04;;;;;;;10.40;1.70;;;;;;;9.38;83.75;100989.47;103269;1282;22878;-62
2023/01/03 01:47:45;;;;;;;7.60;1.80;;;;;;;9.35;83.99;100987.36;103194;1300;24336;-61
2023/01/03 01:50:24;;;;;;;6.40;1.60;;;;;;;9.32;84.08;100988.80;103187;1291;25257;-61
2023/01/03 01:52:58;;;;;;;9.10;2.20;;;;;;;9.30;84.54;100992.21;103030;1306;24290;-62
2023/01/03 01:55:33;;;;;;;8.50;1.80;;;;;;;9.28;84.76;100991.59;103154;1298;22492;-61
2023/01/03 01:58:05;;;;;;;9.00;1.70;;;;;;;9.26;84.91;100991.20;103124;1280;25293;-63
2023/01/03 02:00:37;;;;;;;7.90;1.90;;;;;;;9.23;84.77;101003.71;103337;1306;24260;-61
2023/01/03 02:03:09;;;;;;;12.40;2.40;;;;;;;9.21;85.16;101008.25;103197;1282;24263;-61
2023/01/03 02:05:44;;;;;;;6.30;2.00;;;;;;;9.21;85.28;101013.50;103225;1305;22485;-63
2023/01/03 02:08:16;;;;;;;6.80;1.80;;;;;;;9.20;85.28;101013.60;103413;1282;22458;-61
2023/01/03 02:10:59;;;;;;;9.70;1.90;;;;;;;9.21;85.42;101021.71;103258;1282;22591;-61
2023/01/03 02:13:39;;;;;;;9.50;2.00;;;;;;;9.20;85.51;101025.71;103123;1284;24314;-63
2023/01/03 02:16:31;;;;;;;7.60;2.10;;;;;;;9.19;85.65;101025.98;103166;1281;22692;-61
2023/01/03 02:19:21;;;;;;;7.10;1.80;;;;;;;9.17;86.04;101026.59;103145;1281;24347;-65
2023/01/03 02:22:14;;;;;;;9.40;2.40;;;;;;;9.14;86.00;101027.12;103040;1274;22490;-61
2023/01/03 02:25:05;;;;;;;8.30;2.30;;;;;;;9.11;86.23;101030.23;103256;1282;22561;-62
2023/01/03 02:28:03;;;;;;;8.00;2.00;;;;;;;9.09;86.39;101030.70;103065;1282;22455;-64
2023/01/03 02:30:38;;;;;;;7.90;1.70;;;;;;;9.08;86.66;101039.27;103020;1282;22466;-60
2023/01/03 02:33:20;;;;;;;7.90;1.80;;;;;;;9.07;86.92;101049.70;103179;1274;25236;-61
2023/01/03 02:36:01;;;;;;;7.60;1.80;;;;;;;9.08;86.97;101059.46;103218;1274;22740;-63
2023/01/03 02:38:47;;;;;;;10.60;2.10;;;;;;;9.08;86.98;101063.30;103325;1281;22426;-62
2023/01/03 02:41:27;;;;;;;6.60;1.60;;;;;;;9.06;86.87;101061.92;103256;1287;23386;-62
2023/01/03 02:44:09;;;;;;;11.00;2.10;;;;;;;9.04;87.17;101059.52;103156;1283;24424;-61
2023/01/03 02:46:45;;;;;;;9.40;2.10;;;;;;;9.02;87.09;101061.26;103158;1282;22470;-60
2023/01/03 02:49:24;;;;;;;7.20;1.80;;;;;;;9.01;87.04;101063.54;103316;1275;22476;-61
2023/01/03 02:51:59;;;;;;;5.90;1.50;;;;;;;8.99;87.13;101061.05;103161;1282;24304;-60
2023/01/03 02:54:35;;;;;;;5.90;1.80;;;;;;;8.98;87.29;101059.30;103115;1282;22479;-60
2023/01/03 02:57:10;;;;;;;8.80;2.00;;;;;;;8.98;87.38;101064.66;103138;1303;22475;-61
2023/01/03 02:59:47;;;;;;;10.90;2.10;;;;;;;8.97;87.51;101064.21;103185;1306;22593;-61
2023/01/03 03:02:21;;;;;;;8.30;1.80;;;;;;;8.98;87.62;101065.00;103121;1306;24440;-61
2023/01/03 03:04:55;;;;;;;8.00;1.90;;;;;;;8.96;87.49;101072.83;103162;1282;23975;-61
2023/01/03 03:07:31;;;;;;;8.60;1.70;;;;;;;8.94;87.49;101072.73;103093;1275;22467;-60
2023/01/03 03:13:14;;;;;;;6.80;1.70;;;;;;;8.92;87.82;101083.23;103249;1282;24340;-62
2023/01/03 03:15:55;;;;;;;8.80;1.90;;;;;;;8.92;87.86;101084.89;103120;1282;27413;-61
2023/01/03 03:18:25;;;;;;;;;;;;;;;8.92;88.01;101090.63;103238;1275;22460;-62
2023/01/03 03:26:44;;;;;;;6.50;1.40;;;;;;;8.90;88.10;101081.46;103213;1306;22466;-61
2023/01/03 03:29:18;;;;;;;5.00;1.30;;;;;;;8.89;88.07;101092.16;103222;1282;22468;-61
2023/01/03 03:31:52;;;;;;;5.30;1.30;;;;;;;8.88;87.90;101096.48;103187;1282;22465;-61
2023/01/03 03:34:27;;;;;;;6.60;1.20;;;;;;;8.87;88.10;101095.88;103287;1303;23076;-61
2023/01/03 03:37:04;;;;;;;5.60;1.20;;;;;;;8.86;88.21;101105.05;103256;1274;22466;-60
2023/01/03 03:45:22;;;;;;;5.40;1.30;;;;;;;8.81;88.04;101110.56;102869;1306;22529;-62
2023/01/03 03:47:59;;;;;;;4.10;1.10;;;;;;;8.78;88.14;101115.58;103105;1304;22477;-61
2023/01/03 03:50:35;;;;;;;7.00;1.60;;;;;;;8.76;88.19;101122.66;103103;1282;24381;-61
2023/01/03 03:53:09;;;;;;;4.20;1.10;;;;;;;8.74;88.37;101123.16;103117;1306;22488;-61
2023/01/03 03:55:46;;;;;;;6.80;1.50;;;;;;;8.73;88.41;101124.48;103091;1289;25212;-60
2023/01/03 03:58:21;;;;;;;5.70;1.30;;;;;;;8.73;88.24;101129.09;103156;1306;22483;-60
2023/01/03 04:00:55;;;;;;;5.20;0.90;;;;;;;8.74;88.51;101134.48;103002;1274;23077;-63
2023/01/03 04:03:26;;;;;;;7.90;1.00;;;;;;;8.75;88.51;101139.75;103025;1275;22588;-61
2023/01/03 04:06:02;;;;;;;4.40;1.20;;;;;;;8.77;88.33;101138.30;103173;1305;24327;-60
2023/01/03 04:08:33;;;;;;;4.80;0.90;;;;;;;8.78;88.44;101139.92;103062;1306;22609;-61
2023/01/03 04:11:05;;;;;;;4.60;1.00;;;;;;;8.79;88.36;101139.95;103124;1280;24294;-61
2023/01/03 04:13:37;;;;;;;3.70;1.10;;;;;;;8.80;88.32;101148.36;103251;1287;22478;-63
2023/01/03 04:16:09;;;;;;;6.90;1.20;;;;;;;8.81;88.43;101151.43;103296;1282;25238;-61
2023/01/03 04:18:40;;;;;;;3.30;0.90;;;;;;;8.83;88.33;101156.58;103060;1294;25226;-61
2023/01/03 04:21:11;;;;;;;4.90;1.00;;;;;;;8.84;88.39;101160.89;103191;1283;26112;-62
2023/01/03 04:23:41;;;;;;;3.80;1.00;;;;;;;8.85;88.42;101160.86;103161;1306;24251;-62
2023/01/03 04:26:12;;;;;;;6.10;1.20;;;;;;;8.86;88.32;101166.00;103051;1275;22523;-61
2023/01/03 04:28:43;;;;;;;4.60;1.20;;;;;;;8.86;88.30;101160.90;102950;1274;24428;-60
2023/01/03 04:31:14;;;;;;;4.20;0.90;;;;;;;8.86;88.26;101159.96;103037;1282;22456;-61
2023/01/03 04:33:45;;;;;;;6.70;1.20;;;;;;;8.85;88.15;101162.53;102995;1306;22495;-61
2023/01/03 04:36:17;;;;;;;3.90;1.00;;;;;;;8.84;88.11;101166.85;103094;1294;23373;-60
2023/01/03 04:38:48;;;;;;;4.80;1.10;;;;;;;8.83;88.12;101173.41;103362;1304;22466;-61
2023/01/03 04:41:19;;;;;;;5.50;1.20;;;;;;;8.82;87.84;101181.15;103245;1294;22478;-60
2023/01/03 04:44:02;;;;;;;5.90;1.30;;;;;;;8.80;87.96;101185.98;103054;1281;22478;-62
2023/01/03 04:46:35;;;;;;;5.90;1.40;;;;;;;8.79;88.08;101192.87;103138;1281;22487;-63
2023/01/03 04:49:08;;;;;;;7.70;2.00;;;;;;;8.77;88.00;101196.83;103145;1282;24391;-63
2023/01/03 04:51:39;;;;;;;5.20;1.10;;;;;;;8.74;87.95;101197.30;103415;1282;25369;-62
2023/01/03 04:54:10;;;;;;;6.60;1.40;;;;;;;8.72;87.85;101203.19;103344;1280;24278;-61
2023/01/03 04:56:41;;;;;;;7.80;1.30;;;;;;;8.70;88.02;101208.35;103243;1282;22470;-61
2023/01/03 04:59:12;;;;;;;5.60;1.00;;;;;;;8.67;87.98;101211.20;103321;1275;22473;-63
2023/01/03 05:01:50;;;;;;;4.80;1.10;;;;;;;8.66;88.11;101209.39;103098;1274;24467;-61
2023/01/03 05:04:22;;;;;;;3.30;0.90;;;;;;;8.66;88.01;101207.59;103112;1306;25565;-63
2023/01/03 05:06:56;;;;;;;5.10;1.30;;;;;;;8.65;88.06;101209.19;103205;1306;22474;-62
2023/01/03 05:09:27;;;;;;;7.30;1.30;;;;;;;8.64;88.09;101207.40;103116;1306;24353;-61
2023/01/03 05:11:58;;;;;;;6.20;1.50;;;;;;;8.63;87.98;101209.81;102967;1282;25277;-60
2023/01/03 05:14:28;;;;;;;5.90;1.30;;;;;;;8.62;88.03;101214.77;103012;1306;24326;-59
2023/01/03 05:16:59;;;;;;;6.50;1.20;;;;;;;8.60;88.12;101213.08;102970;1282;22478;-60
2023/01/03 05:19:30;;;;;;;7.70;1.30;;;;;;;8.60;88.19;101215.02;103140;1275;22542;-59
2023/01/03 05:27:38;;;;;;;5.60;1.10;;;;;;;8.55;88.10;101216.58;102986;1306;24363;-61
2023/01/03 05:30:11;;;;;;;4.30;1.00;;;;;;;8.53;88.04;101215.92;103217;1306;22543;-61
2023/01/03 05:32:42;;;;;;;4.50;1.00;;;;;;;8.52;88.05;101216.04;103328;1306;26635;-62
2023/01/03 05:35:13;;;;;;;5.00;1.40;;;;;;;8.50;88.00;101216.96;103176;1282;22500;-60
2023/01/03 05:37:43;;;;;;;4.60;1.10;;;;;;;8.50;88.05;101224.52;103088;1305;25685;-61
2023/01/03 05:40:15;;;;;;;3.80;0.90;;;;;;;8.48;88.02;101224.80;103324;1275;25278;-61
2023/01/03 05:42:46;;;;;;;6.80;1.00;;;;;;;8.47;88.05;101226.26;103249;1275;22517;-60
2023/01/03 05:45:18;;;;;;;7.70;1.20;;;;;;;8.45;87.98;101234.52;103187;1282;22482;-61
2023/01/03 05:47:49;;;;;;;4.60;0.90;;;;;;;8.44;88.01;101234.00;103269;1282;24275;-61
2023/01/03 05:50:20;;;;;;;4.20;1.00;;;;;;;8.42;88.17;101240.56;103316;1274;22705;-61
2023/01/03 05:52:52;;;;;;;4.40;1.00;;;;;;;8.40;88.16;101242.36;103219;1275;24488;-60
2023/01/03 05:55:23;;;;;;;3.60;1.00;;;;;;;8.39;88.29;101248.19;103359;1282;24362;-61
2023/01/03 05:57:54;;;;;;;7.50;1.30;;;;;;;8.39;88.16;101250.74;103329;1281;24317;-61
2023/01/03 06:00:26;;;;;;;6.90;1.20;;;;;;;8.39;88.24;101259.80;103199;1281;24231;-63
2023/01/03 06:02:57;;;;;;;4.60;0.90;;;;;;;8.37;88.17;101261.77;103247;1280;22464;-62
2023/01/03 06:05:28;;;;;;;5.70;1.30;;;;;;;8.36;88.21;101260.94;103486;1282;25340;-61
2023/01/03 06:08:02;;;;;;;5.10;1.20;;;;;;;8.34;88.15;101262.79;103298;1282;25270;-61
2023/01/03 06:10:33;;;;;;;8.10;1.30;;;;;;;8.33;88.13;101265.45;103375;1275;24302;-60
2023/01/03 06:13:03;;;;;;;7.30;1.20;;;;;;;8.33;88.19;101269.92;102948;1282;22549;-61
2023/01/03 06:15:34;;;;;;;7.80;1.80;;;;;;;8.32;88.19;101274.71;103168;1306;22508;-62
2023/01/03 06:18:05;;;;;;;7.30;1.30;;;;;;;8.31;88.20;101276.33;103287;1281;22484;-61
2023/01/03 06:20:36;;;;;;;14.20;3.60;;;;;;;8.31;88.21;101277.05;103273;1274;22504;-61
2023/01/03 06:23:07;;;;;;;14.50;3.10;;;;;;;8.30;88.17;101276.98;103290;1274;22526;-60
2023/01/03 06:25:38;;;;;;;18.80;5.10;;;;;;;8.31;88.14;101275.69;103212;1275;22483;-61
2023/01/03 06:28:09;;;;;;;15.00;3.20;;;;;;;8.32;88.23;101283.77;103251;1282;22586;-60
2023/01/03 06:30:41;;;;;;;10.40;2.30;;;;;;;8.33;88.08;101287.80;103252;1298;26654;-62
2023/01/03 06:33:12;;;;;;;6.00;1.50;;;;;;;8.33;88.03;101290.02;103064;1299;24497;-63
2023/01/03 06:35:43;;;;;;;6.30;1.50;;;;;;;8.34;88.06;101293.42;103063;1298;24439;-61
2023/01/03 06:38:14;;;;;;;5.20;1.40;;;;;;;8.35;88.23;101298.16;103143;1282;22586;-62
2023/01/03 06:40:50;;;;;;;7.30;1.70;;;;;;;8.36;88.16;101309.60;103258;1306;22665;-65
2023/01/03 06:43:21;;;;;;;5.30;1.30;;;;;;;8.36;88.28;101314.48;103129;1274;24337;-61
2023/01/03 06:54:24;;;;;;;5.70;1.70;;;;;;;8.39;88.27;101323.65;103140;1275;22523;-62
2023/01/03 06:56:55;;;;;;;4.80;1.40;;;;;;;8.40;88.22;101324.26;103359;1306;25440;-62
2023/01/03 06:59:27;;;;;;;4.60;1.60;;;;;;;8.41;88.30;101329.00;103202;1304;22464;-62
2023/01/03 07:01:58;;;;;;;10.20;2.50;;;;;;;8.41;88.28;101327.01;103248;1304;22474;-61
2023/01/03 07:04:29;;;;;;;9.50;2.30;;;;;;;8.41;88.13;101333.44;103147;1306;22569;-62
2023/01/03 07:07:00;;;;;;;7.80;1.90;;;;;;;8.42;88.06;101335.73;103093;1304;22460;-62
2023/01/03 07:09:31;;;;;;;9.70;1.70;;;;;;;8.43;87.72;101338.80;103101;1306;22487;-62
2023/01/03 07:13:57;;;;;;;7.90;1.40;;;;;;;8.43;87.67;101339.59;103137;1306;25311;-64
2023/01/03 07:14:54;;;;;;;5.50;1.50;;;;;;;8.44;87.35;101342.13;103209;1306;24347;-62
2023/01/03 07:17:25;;;;;;;7.10;1.50;;;;;;;8.44;87.19;101343.92;103279;1282;25236;-62
2023/01/03 07:19:56;;;;;;;8.70;1.80;;;;;;;8.45;87.17;101348.68;103367;1298;24462;-63
2023/01/03 07:22:27;;;;;;;5.30;1.30;;;;;;;8.46;87.12;101355.58;103149;1281;22466;-63
2023/01/03 07:24:58;;;;;;;4.80;1.10;;;;;;;8.45;87.12;101353.05;103108;1297;22458;-62
2023/01/03 07:27:29;;;;;;;6.90;1.50;;;;;;;8.46;86.95;101356.85;103189;1298;23241;-62
2023/01/03 07:29:59;;;;;;;9.00;1.70;;;;;;;8.46;86.86;101355.27;103067;1306;22474;-62
2023/01/03 07:32:30;;;;;;;7.10;1.70;;;;;;;8.46;86.82;101362.58;103161;1274;22504;-64
2023/01/03 07:35:01;;;;;;;9.40;1.80;;;;;;;8.46;86.75;101366.63;103320;1281;24398;-63
2023/01/03 07:37:32;;;;;;;4.90;1.40;;;;;;;8.46;86.87;101372.96;103192;1278;22480;-62
2023/01/03 07:40:04;;;;;;;11.60;2.80;;;;;;;8.47;87.07;101375.83;103140;1306;22515;-63
2023/01/03 07:45:23;;;;;;;6.90;1.80;;;;;;;8.49;87.09;101374.66;103135;1279;25287;-61
2023/01/03 07:47:54;;;;;;;10.80;1.90;;;;;;;8.50;87.30;101377.98;103144;1298;22482;-62
2023/01/03 07:50:25;;;;;;;9.50;2.10;;;;;;;8.50;87.36;101383.55;103151;1275;22618;-67
2023/01/03 07:52:56;;;;;;;13.80;2.90;;;;;;;8.50;87.49;101386.00;103129;1281;25278;-63
2023/01/03 07:55:28;;;;;;;8.40;2.00;;;;;;;8.51;87.59;101386.15;103062;1282;25274;-63
2023/01/03 07:57:58;;;;;;;13.30;3.40;;;;;;;8.52;87.71;101385.01;103224;1282;25240;-62
2023/01/03 08:00:29;;;;;;;12.50;3.60;;;;;;;8.53;87.55;101391.10;103113;1305;25222;-62
2023/01/03 08:03:01;;;;;;;15.60;3.60;;;;;;;8.53;87.71;101390.37;103100;1305;22472;-62
2023/01/03 08:05:33;;;;;;;8.90;2.50;;;;;;;8.54;87.69;101393.54;103153;1275;22454;-62
2023/01/03 08:08:05;;;;;;;11.00;2.00;;;;;;;8.55;87.54;101401.85;103274;1282;22474;-63
2023/01/03 08:13:24;;;;;;;8.00;1.80;;;;;;;8.58;87.62;101403.38;103142;1282;26287;-62
2023/01/03 08:15:56;;;;;;;10.50;2.60;;;;;;;8.58;87.68;101408.14;103169;1282;25135;-61
2023/01/03 08:18:28;;;;;;;8.00;2.30;;;;;;;8.59;87.66;101409.54;103174;1278;22460;-67
2023/01/03 08:20:59;;;;;;;7.90;2.50;;;;;;;8.60;87.64;101413.02;103235;1300;22475;-62
2023/01/03 08:23:31;;;;;;;10.70;2.80;;;;;;;8.61;87.45;101408.78;103266;1287;22490;-62
2023/01/03 08:26:07;;;;;;;7.60;2.00;;;;;;;8.62;87.48;101408.90;103288;1274;22501;-65
2023/01/03 08:28:39;;;;;;;12.90;2.20;;;;;;;8.63;87.36;101408.64;103260;1281;22534;-62
2023/01/03 08:31:13;;;;;;;9.20;2.70;;;;;;;8.63;87.33;101407.43;103367;1288;22464;-61
2023/01/03 08:33:50;;;;;;;12.20;3.10;;;;;;;8.64;87.25;101410.85;103461;1282;24400;-61
2023/01/03 08:36:23;;;;;;;13.30;4.10;;;;;;;8.65;87.19;101415.60;103360;1282;25249;-62
2023/01/03 08:38:58;;;;;;;11.10;3.00;;;;;;;8.66;87.11;101421.20;103319;1306;23095;-62
2023/01/03 08:41:32;;;;;;;9.40;2.60;;;;;;;8.68;87.02;101421.65;103335;1281;22464;-62
2023/01/03 08:44:07;;;;;;;8.80;2.60;;;;;;;8.69;86.98;101424.16;103250;1275;22463;-62
2023/01/03 08:46:42;;;;;;;13.70;2.70;;;;;;;8.69;87.02;101425.48;103236;1282;24260;-62
2023/01/03 08:49:13;;;;;;;8.50;2.20;;;;;;;8.70;86.55;101427.45;103297;1282;22663;-61
2023/01/03 08:51:44;;;;;;;9.50;2.50;;;;;;;8.70;86.47;101429.54;103267;1281;22927;-63
2023/01/03 08:54:15;;;;;;;9.00;2.10;;;;;;;8.72;86.44;101432.27;103164;1280;22517;-62
2023/01/03 08:56:47;;;;;;;9.30;2.50;;;;;;;8.73;86.26;101430.49;103174;1282;25372;-62
2023/01/03 08:59:18;;;;;;;9.80;2.70;;;;;;;8.74;86.30;101435.71;103286;1283;25380;-63
2023/01/03 09:01:49;;;;;;;9.10;2.70;;;;;;;8.75;85.96;101438.23;103269;1274;22483;-62
2023/01/03 09:04:20;;;;;;;7.30;2.10;;;;;;;8.75;85.94;101440.64;103323;1287;22461;-62
2023/01/03 09:06:50;;;;;;;9.70;2.40;;;;;;;8.75;86.21;101445.05;103122;1282;24468;-62
2023/01/03 09:09:22;;;;;;;10.40;2.70;;;;;;;8.77;86.20;101447.96;103088;1306;23108;-61
2023/01/03 09:11:53;;;;;;;14.40;2.40;;;;;;;8.77;86.25;101454.95;103247;1284;22459;-62
2023/01/03 09:14:24;;;;;;;11.30;2.70;;;;;;;8.79;86.10;101457.29;103129;1306;24340;-62
2023/01/03 09:16:55;;;;;;;10.30;2.30;;;;;;;8.81;86.22;101455.66;103095;1282;22461;-65
2023/01/03 09:19:26;;;;;;;11.20;2.50;;;;;;;8.83;86.33;101453.55;103152;1281;22938;-64
2023/01/03 09:21:56;;;;;;;10.50;2.50;;;;;;;8.84;86.32;101458.58;103173;1306;22509;-64
2023/01/03 09:24:27;;;;;;;10.80;2.60;;;;;;;8.85;86.04;101458.97;103124;1306;22471;-63
2023/01/03 09:27:00;;;;;;;13.60;2.40;;;;;;;8.87;85.99;101456.21;103246;1298;22844;-62
2023/01/03 09:29:30;;;;;;;8.60;2.50;;;;;;;8.87;85.86;101458.91;103362;1306;22455;-62
2023/01/03 09:34:01;;;;;;;11.50;2.60;;;;;;;8.89;85.66;101460.94;102388;1328;545081;-85
2023/01/03 09:36:33;;;;;;;10.90;2.60;;;;;;;8.86;85.76;101466.83;104793;1306;22461;-83
2023/01/03 09:39:04;;;;;;;8.60;2.40;;;;;;;8.84;85.96;101467.02;104960;1306;22539;-84
2023/01/03 09:41:35;;;;;;;11.50;3.50;;;;;;;8.83;85.88;101467.31;104904;1309;22496;-85
2023/01/03 09:44:08;;;;;;;10.50;2.50;;;;;;;8.82;86.03;101470.58;105010;1301;24240;-83
2023/01/03 09:46:40;;;;;;;10.60;2.90;;;;;;;8.81;86.16;101470.36;105048;1306;182027;-84
2023/01/03 09:49:14;;;;;;;13.70;3.20;;;;;;;8.80;85.77;101466.66;105101;1285;22510;-85
2023/01/03 10:03:45;;;;;;;10.30;2.80;;;;;;;8.86;85.53;101472.15;105125;1306;22471;-86
2023/01/03 10:06:26;;;;;;;9.30;2.70;;;;;;;8.86;85.51;101473.42;105141;1295;23949;-86
2023/01/03 10:09:07;;;;;;;9.40;2.80;;;;;;;8.86;85.36;101471.67;105187;1306;22547;-86
2023/01/03 10:11:47;;;;;;;9.90;2.50;;;;;;;8.86;85.32;101471.52;105205;1299;24030;-85
2023/01/03 10:14:36;;;;;;;11.00;2.30;;;;;;;8.85;85.02;101478.36;105299;1287;22467;-84
2023/01/03 10:17:19;;;;;;;10.40;2.50;;;;;;;8.82;84.86;101477.98;105386;1306;22457;-84
2023/01/03 10:20:14;;;;;;;9.90;2.50;;;;;;;8.79;84.87;101478.06;105328;1300;25904;-84
2023/01/03 10:22:47;;;;;;;10.20;2.60;;;;;;;8.75;84.88;101482.14;105188;1306;22452;-84
2023/01/03 10:25:21;;;;;;;6.80;1.60;;;;;;;8.72;84.91;101478.96;105358;1306;24290;-85
2023/01/03 10:27:55;;;;;;;10.40;2.30;;;;;;;8.70;84.92;101478.28;105255;1304;22488;-87
2023/01/03 10:30:37;;;;;;;10.70;2.60;;;;;;;8.69;85.00;101476.56;105208;1298;25383;-85
2023/01/03 10:33:24;;;;;;;8.50;2.30;;;;;;;8.69;85.12;101478.00;105132;1300;24237;-86
2023/01/03 10:35:57;;;;;;;7.80;2.00;;;;;;;8.69;85.20;101472.60;105174;1305;22575;-84
2023/01/03 10:38:28;;;;;;;6.80;2.30;;;;;;;8.68;84.90;101474.84;105256;1299;22482;-87
2023/01/03 10:41:01;;;;;;;6.50;1.80;;;;;;;8.67;84.52;101469.38;105150;1296;22845;-84
2023/01/03 10:43:38;;;;;;;5.00;1.40;;;;;;;8.66;83.68;101474.58;105234;1284;22490;-87
2023/01/03 10:46:16;;;;;;;8.40;1.80;;;;;;;8.66;83.88;101473.06;105226;1306;23232;-84
2023/01/03 10:48:49;;;;;;;5.80;1.40;;;;;;;8.66;83.60;101474.27;105254;1305;22515;-84
2023/01/03 10:51:28;;;;;;;5.10;1.30;;;;;;;8.67;83.48;101473.36;105246;1300;25590;-85
2023/01/03 10:54:10;;;;;;;6.20;1.30;;;;;;;8.69;83.25;101472.35;105142;1305;23670;-84
2023/01/03 10:56:40;;;;;;;4.70;1.40;;;;;;;8.71;83.09;101465.08;105169;1299;22414;-85
2023/01/03 10:59:21;;;;;;;11.00;1.60;;;;;;;8.71;82.75;101463.55;105150;1306;22510;-85
2023/01/03 11:02:01;;;;;;;6.00;1.10;;;;;;;8.72;82.26;101465.04;105019;1305;22548;-87
2023/01/03 11:04:33;;;;;;;5.70;1.20;;;;;;;8.72;82.31;101466.71;105458;1302;24274;-86
2023/01/03 11:07:15;;;;;;;6.90;1.20;;;;;;;8.73;82.09;101464.77;105363;1299;22468;-88
2023/01/03 11:09:50;;;;;;;6.00;1.30;;;;;;;8.73;81.85;101465.40;105308;1302;22463;-85
2023/01/03 11:12:28;;;;;;;6.40;1.40;;;;;;;8.75;81.90;101466.38;105405;1281;22584;-86
2023/01/03 11:15:00;;;;;;;7.00;1.50;;;;;;;8.77;81.68;101465.77;105296;1293;22461;-88
2023/01/03 11:17:30;;;;;;;7.90;1.70;;;;;;;8.78;81.48;101466.07;105396;1303;24309;-86
2023/01/03 11:20:02;;;;;;;5.40;1.30;;;;;;;8.79;81.42;101458.98;105338;1302;22552;-85
2023/01/03 11:22:42;;;;;;;4.80;1.40;;;;;;;8.78;81.21;101461.69;105317;1302;25332;-86
2023/01/03 11:25:26;;;;;;;4.70;1.20;;;;;;;8.78;81.07;101462.25;105408;1302;22777;-85
2023/01/03 11:28:07;;;;;;;5.10;1.10;;;;;;;8.78;80.98;101459.23;105395;1302;22973;-86
2023/01/03 11:30:48;;;;;;;6.80;1.40;;;;;;;8.78;80.68;101457.16;105297;1300;22467;-85
2023/01/03 11:33:35;;;;;;;7.90;1.40;;;;;;;8.79;80.47;101456.66;105301;1294;22548;-86
2023/01/03 11:36:24;;;;;;;8.20;1.50;;;;;;;8.80;80.48;101455.99;105364;1288;22472;-89
2023/01/03 11:39:10;;;;;;;6.20;1.20;;;;;;;8.79;80.23;101458.08;105357;1302;22468;-85
2023/01/03 11:41:56;;;;;;;5.60;1.30;;;;;;;8.78;80.22;101457.23;105468;1303;22465;-85
2023/01/03 11:44:50;;;;;;;5.30;1.20;;;;;;;8.77;80.19;101455.91;105292;1302;25221;-87
2023/01/03 11:47:30;;;;;;;3.60;1.00;;;;;;;8.78;80.03;101454.00;105458;1288;22554;-85
2023/01/03 11:50:11;;;;;;;;;;;;;;;8.79;79.65;101453.00;105422;1302;23937;-85
2023/01/03 11:52:44;;;;;;;;;;;;;;;8.79;79.49;101451.25;105345;1302;22609;-87
2023/01/03 11:55:37;;;;;;;6.30;1.20;;;;;;;8.80;79.60;101446.13;105451;1302;23179;-86
2023/01/03 11:58:27;;;;;;;7.50;1.30;;;;;;;8.83;79.36;101447.02;105401;1302;24293;-86
2023/01/03 12:01:08;;;;;;;5.50;1.30;;;;;;;8.85;79.53;101449.50;105322;1302;23628;-87
2023/01/03 12:03:59;;;;;;;7.80;1.10;;;;;;;8.88;79.58;101455.80;105298;1302;22489;-85
2023/01/03 12:06:37;;;;;;;4.40;1.70;;;;;;;8.89;78.43;101454.55;105506;1302;22442;-85
2023/01/03 12:09:18;;;;;;;4.20;1.20;;;;;;;8.90;78.41;101453.57;105436;1302;22471;-90
2023/01/03 12:12:16;;;;;;;5.20;1.20;;;;;;;8.92;78.11;101450.73;105465;1303;22519;-86
2023/01/03 12:14:52;;;;;;;3.90;0.90;;;;;;;8.93;78.02;101451.34;105038;1308;23268;-85
2023/01/03 12:17:30;;;;;;;4.40;0.90;;;;;;;8.95;77.47;101451.95;105276;1308;22679;-86
2023/01/03 12:20:05;;;;;;;8.70;0.80;;;;;;;8.93;76.93;101448.09;105038;1308;22710;-86
2023/01/03 12:22:41;;;;;;;3.80;0.90;;;;;;;8.92;77.01;101447.55;105011;1308;22516;-90
2023/01/03 12:25:19;;;;;;;5.00;1.00;;;;;;;8.91;76.29;101453.86;105083;1302;24295;-85
2023/01/03 12:27:56;;;;;;;4.30;0.90;;;;;;;8.89;76.54;101453.14;104936;1308;22493;-85
2023/01/03 12:30:37;;;;;;;4.40;0.70;;;;;;;8.88;76.88;101448.14;104941;1308;25380;-87
2023/01/03 12:33:22;;;;;;;5.60;0.90;;;;;;;8.90;76.98;101447.06;104813;1308;22558;-88
2023/01/03 12:36:01;;;;;;;5.50;0.80;;;;;;;8.92;76.87;101448.19;104724;1311;22482;-85
2023/01/03 12:38:37;;;;;;;3.80;0.80;;;;;;;8.93;76.76;101450.40;104914;1308;22466;-85
2023/01/03 12:41:22;;;;;;;3.50;0.80;;;;;;;8.91;76.65;101446.73;104910;1308;22480;-86
2023/01/03 12:43:58;;;;;;;4.30;0.80;;;;;;;8.91;76.76;101448.55;104978;1298;22480;-88
2023/01/03 12:46:34;;;;;;;3.40;0.90;;;;;;;8.93;77.12;101441.33;105050;1308;25376;-86
2023/01/03 12:49:12;;;;;;;3.90;0.90;;;;;;;8.99;76.96;101433.38;104962;1293;24320;-85